Time;durP1;ratioP1;P1;durP2;ratioP2;P2;SDS_P1;SDS_P2;PMS_P1;PMS_P2;Temp;Humidity;BMP_temperature;BMP_pressure;BME280_temperature;BME280_humidity;BME280_pressure;Samples;Min_cycle;Max_cycle;Signal;HPM_P1;HPM_P2
2023/07/04 00:01:48;;;;;;;;;;;14.90;81.30;;;;;;5072142;28;20004;-27
2023/07/04 00:04:17;;;;;;;;;;;14.90;81.30;;;;;;5071983;28;20435;-26
2023/07/04 00:06:42;;;;;;;;;;;14.90;81.90;;;;;;5071973;28;19908;-27
2023/07/04 00:09:08;;;;;;;;;;;14.80;81.40;;;;;;5071627;28;19919;-25
2023/07/04 00:11:34;;;;;;;;;;;14.90;81.30;;;;;;5071968;28;19947;-25
2023/07/04 00:14:00;;;;;;;;;;;14.90;81.20;;;;;;5072030;28;19942;-28
2023/07/04 00:16:25;;;;;;;;;;;14.90;81.20;;;;;;5072266;28;19908;-24
2023/07/04 00:18:51;;;;;;;;;;;14.90;81.10;;;;;;5071866;28;19912;-28
2023/07/04 00:21:17;;;;;;;;;;;14.90;81.00;;;;;;5072007;28;20363;-25
2023/07/04 00:23:45;;;;;;;;;;;15.00;81.10;;;;;;5071918;28;20001;-27
2023/07/04 00:26:11;;;;;;;;;;;15.00;81.00;;;;;;5071964;28;19917;-28
2023/07/04 00:28:38;;;;;;;;;;;15.00;81.00;;;;;;5071739;28;19974;-31
2023/07/04 00:31:04;;;;;;;;;;;15.00;80.90;;;;;;5071916;28;19908;-28
2023/07/04 00:33:30;;;;;;;;;;;15.00;80.90;;;;;;5072016;28;20364;-27
2023/07/04 00:36:03;;;;;;;;;;;15.00;80.90;;;;;;5071816;28;19978;-26
2023/07/04 00:38:32;;;;;;;;;;;15.00;80.90;;;;;;5071702;28;20222;-25
2023/07/04 00:41:01;;;;;;;;;;;15.00;80.90;;;;;;5071769;28;20376;-25
2023/07/04 00:43:46;;;;;;;;;;;15.10;81.00;;;;;;5071720;28;20280;-25
2023/07/04 00:46:15;;;;;;;;;;;15.10;81.10;;;;;;5053634;28;19909;-27
2023/07/04 00:48:45;;;;;;;;;;;15.00;81.10;;;;;;5071641;28;19908;-26
2023/07/04 00:51:21;;;;;;;;;;;15.00;81.10;;;;;;5071670;28;20403;-37
2023/07/04 00:53:49;;;;;;;;;;;15.00;81.10;;;;;;5071524;28;20295;-25
2023/07/04 00:56:15;;;;;;;;;;;15.00;81.10;;;;;;5071536;28;19919;-26
2023/07/04 00:58:43;;;;;;;;;;;15.00;81.00;;;;;;5071498;28;19909;-26
2023/07/04 01:01:09;;;;;;;;;;;14.90;80.90;;;;;;5071512;28;19913;-27
2023/07/04 01:03:34;;;;;;;;;;;14.90;80.90;;;;;;5071704;28;19909;-26
2023/07/04 01:06:03;;;;;;;;;;;14.90;80.90;;;;;;5053377;28;20140;-26
2023/07/04 01:08:33;;;;;;;;;;;14.90;80.90;;;;;;5071413;28;19913;-26
2023/07/04 01:11:02;;;;;;;;;;;14.90;80.90;;;;;;5071446;28;20347;-26
2023/07/04 01:13:35;;;;;;;;;;;14.90;81.20;;;;;;5071315;28;19932;-29
2023/07/04 01:16:01;;;;;;;;;;;14.90;81.10;;;;;;5071242;28;20005;-29
2023/07/04 01:18:27;;;;;;;;;;;14.80;81.20;;;;;;5071404;28;19909;-25
2023/07/04 01:20:53;;;;;;;;;;;14.80;82.00;;;;;;5072797;28;19908;-28
2023/07/04 01:23:21;;;;;;;;;;;14.70;82.60;;;;;;5075163;28;20375;-35
2023/07/04 01:25:55;;;;;;;;;;;14.70;82.50;;;;;;5074999;28;19913;-30
2023/07/04 01:28:21;;;;;;;;;;;14.60;82.60;;;;;;5074918;28;19920;-29
2023/07/04 01:30:47;;;;;;;;;;;14.60;82.90;;;;;;5074829;28;19908;-26
2023/07/04 01:33:13;;;;;;;;;;;14.50;83.00;;;;;;5074779;28;19951;-26
2023/07/04 01:35:39;;;;;;;;;;;14.50;83.10;;;;;;5074842;28;19916;-24
2023/07/04 01:38:06;;;;;;;;;;;14.50;83.00;;;;;;5074578;28;19915;-29
2023/07/04 01:40:34;;;;;;;;;;;14.60;83.10;;;;;;5074506;28;19912;-30
2023/07/04 01:43:03;;;;;;;;;;;14.60;83.10;;;;;;5074608;28;19912;-29
2023/07/04 01:45:28;;;;;;;;;;;14.60;83.10;;;;;;5074654;28;19913;-26
2023/07/04 01:47:53;;;;;;;;;;;14.60;83.00;;;;;;5074584;28;19908;-27
2023/07/04 01:50:19;;;;;;;;;;;14.60;83.10;;;;;;5074642;28;19908;-28
2023/07/04 01:52:45;;;;;;;;;;;14.60;83.30;;;;;;5074560;28;19908;-30
2023/07/04 01:55:11;;;;;;;;;;;14.60;83.20;;;;;;5074435;28;19931;-28
2023/07/04 01:57:37;;;;;;;;;;;14.70;83.20;;;;;;5074414;28;19917;-27
2023/07/04 02:00:04;;;;;;;;;;;14.70;83.40;;;;;;5074306;28;19917;-25
2023/07/04 02:02:29;;;;;;;;;;;14.70;83.10;;;;;;5074147;28;19919;-27
2023/07/04 02:04:55;;;;;;;;;;;14.70;83.00;;;;;;5074402;28;19909;-26
2023/07/04 02:07:20;;;;;;;;;;;14.70;82.90;;;;;;5074372;28;20419;-26
2023/07/04 02:09:46;;;;;;;;;;;14.70;82.80;;;;;;5074149;28;19920;-27
2023/07/04 02:12:11;;;;;;;;;;;14.70;82.80;;;;;;5074181;28;19909;-28
2023/07/04 02:14:37;;;;;;;;;;;14.80;82.90;;;;;;5074181;28;19908;-41
2023/07/04 02:17:02;;;;;;;;;;;14.80;82.90;;;;;;5074160;28;19909;-26
2023/07/04 02:19:28;;;;;;;;;;;14.80;82.80;;;;;;5074011;28;20018;-26
2023/07/04 02:21:53;;;;;;;;;;;14.90;82.80;;;;;;5073964;28;19909;-29
2023/07/04 02:24:19;;;;;;;;;;;14.90;82.80;;;;;;5073979;28;19915;-26
2023/07/04 02:26:44;;;;;;;;;;;14.90;82.80;;;;;;5055911;28;20007;-28
2023/07/04 02:29:10;;;;;;;;;;;14.90;82.60;;;;;;5073786;28;20062;-28
2023/07/04 02:31:35;;;;;;;;;;;15.00;82.70;;;;;;5073397;28;20454;-25
2023/07/04 02:34:01;;;;;;;;;;;14.90;82.60;;;;;;5073959;28;19966;-26
2023/07/04 02:36:26;;;;;;;;;;;14.90;82.60;;;;;;5073699;28;19915;-28
2023/07/04 02:38:51;;;;;;;;;;;14.90;82.60;;;;;;5073882;28;20249;-25
2023/07/04 02:41:17;;;;;;;;;;;14.90;82.70;;;;;;5073537;28;20015;-26
2023/07/04 02:43:43;;;;;;;;;;;14.80;82.90;;;;;;5073551;28;19908;-25
2023/07/04 02:46:08;;;;;;;;;;;14.80;83.00;;;;;;5073509;28;19928;-27
2023/07/04 02:48:34;;;;;;;;;;;14.70;83.00;;;;;;5073708;28;19908;-28
2023/07/04 02:50:59;;;;;;;;;;;14.70;83.10;;;;;;5073377;28;19932;-26
2023/07/04 02:53:25;;;;;;;;;;;14.60;83.10;;;;;;5073358;28;19959;-26
2023/07/04 02:55:52;;;;;;;;;;;14.60;83.20;;;;;;5073227;28;19908;-25
2023/07/04 02:58:18;;;;;;;;;;;14.60;83.20;;;;;;5073237;28;20038;-27
2023/07/04 03:00:43;;;;;;;;;;;14.60;83.20;;;;;;5073125;28;19927;-26
2023/07/04 03:03:09;;;;;;;;;;;14.60;83.30;;;;;;5055046;28;19938;-26
2023/07/04 03:05:35;;;;;;;;;;;14.60;83.30;;;;;;5073284;28;19908;-26
2023/07/04 03:08:00;;;;;;;;;;;14.50;83.20;;;;;;5073105;28;20269;-32
2023/07/04 03:10:26;;;;;;;;;;;14.50;83.30;;;;;;5073102;28;20007;-27
2023/07/04 03:12:51;;;;;;;;;;;14.50;83.40;;;;;;5072993;28;19970;-25
2023/07/04 03:15:17;;;;;;;;;;;14.50;83.40;;;;;;5072994;28;20350;-28
2023/07/04 03:17:43;;;;;;;;;;;14.50;83.50;;;;;;5054928;28;19908;-25
2023/07/04 03:20:10;;;;;;;;;;;14.40;83.40;;;;;;5073095;28;20012;-26
2023/07/04 03:22:37;;;;;;;;;;;14.40;83.40;;;;;;5072834;28;20399;-25
2023/07/04 03:25:02;;;;;;;;;;;14.50;83.50;;;;;;5073144;28;19908;-25
2023/07/04 03:27:28;;;;;;;;;;;14.40;83.40;;;;;;5072554;28;20286;-25
2023/07/04 03:29:53;;;;;;;;;;;14.50;83.50;;;;;;5054667;28;19919;-32
2023/07/04 03:32:19;;;;;;;;;;;14.40;83.40;;;;;;5072524;28;19915;-33
2023/07/04 03:34:45;;;;;;;;;;;14.40;83.40;;;;;;5072586;28;20387;-27
2023/07/04 03:37:11;;;;;;;;;;;14.40;83.50;;;;;;5072552;28;20396;-25
2023/07/04 03:39:36;;;;;;;;;;;14.40;84.10;;;;;;5072549;28;19917;-26
2023/07/04 03:42:02;;;;;;;;;;;14.40;83.40;;;;;;5072679;28;19909;-25
2023/07/04 03:44:27;;;;;;;;;;;14.40;83.50;;;;;;5071812;28;19954;-28
2023/07/04 03:46:53;;;;;;;;;;;14.40;83.50;;;;;;5072383;28;19909;-26
2023/07/04 03:49:18;;;;;;;;;;;14.40;83.50;;;;;;5072318;28;19909;-26
2023/07/04 03:51:44;;;;;;;;;;;14.40;83.50;;;;;;5072576;28;19908;-35
2023/07/04 03:54:09;;;;;;;;;;;14.40;83.50;;;;;;5072509;28;19944;-24
2023/07/04 03:56:35;;;;;;;;;;;14.40;83.40;;;;;;5072303;28;19931;-26
2023/07/04 03:59:00;;;;;;;;;;;14.40;83.40;;;;;;5072076;28;19989;-25
2023/07/04 04:01:26;;;;;;;;;;;14.40;83.40;;;;;;5072281;28;19908;-28
2023/07/04 04:03:53;;;;;;;;;;;14.40;83.30;;;;;;5072041;28;19956;-28
2023/07/04 04:06:19;;;;;;;;;;;14.40;83.20;;;;;;5072070;28;20387;-27
2023/07/04 04:08:45;;;;;;;;;;;14.50;83.30;;;;;;5072127;28;19908;-32
2023/07/04 04:11:10;;;;;;;;;;;14.50;83.20;;;;;;5071979;28;19915;-24
2023/07/04 04:13:36;;;;;;;;;;;14.50;83.10;;;;;;5072047;28;19916;-26
2023/07/04 04:16:02;;;;;;;;;;;14.50;83.10;;;;;;5071994;28;19908;-25
2023/07/04 04:18:27;;;;;;;;;;;14.50;83.10;;;;;;5071995;28;19908;-29
2023/07/04 04:20:53;;;;;;;;;;;14.50;83.00;;;;;;5071889;28;19913;-29
2023/07/04 04:23:18;;;;;;;;;;;14.60;83.00;;;;;;5053882;28;20357;-28
2023/07/04 04:25:45;;;;;;;;;;;14.60;82.90;;;;;;5071943;28;19995;-25
2023/07/04 04:28:11;;;;;;;;;;;14.60;83.00;;;;;;5071665;28;19920;-26
2023/07/04 04:30:37;;;;;;;;;;;14.60;82.80;;;;;;5071807;28;19942;-26
2023/07/04 04:33:03;;;;;;;;;;;14.60;82.80;;;;;;5071777;28;19944;-25
2023/07/04 04:35:32;;;;;;;;;;;14.70;82.80;;;;;;5071948;28;19912;-25
2023/07/04 04:37:57;;;;;;;;;;;14.80;82.80;;;;;;5071673;28;19909;-28
2023/07/04 04:40:23;;;;;;;;;;;14.80;82.70;;;;;;5071654;28;19962;-25
2023/07/04 04:42:53;;;;;;;;;;;14.80;82.80;;;;;;5071767;28;19912;-28
2023/07/04 04:45:19;;;;;;;;;;;14.80;82.80;;;;;;5071720;28;20035;-26
2023/07/04 04:47:52;;;;;;;;;;;14.80;82.80;;;;;;5071582;28;20288;-24
2023/07/04 04:50:24;;;;;;;;;;;14.80;82.80;;;;;;5071570;28;19909;-28
2023/07/04 04:52:50;;;;;;;;;;;14.80;82.80;;;;;;5071444;28;20329;-26
2023/07/04 04:55:16;;;;;;;;;;;14.90;82.80;;;;;;5073761;28;20003;-29
2023/07/04 04:57:41;;;;;;;;;;;15.00;82.80;;;;;;5075545;28;19912;-26
2023/07/04 05:00:08;;;;;;;;;;;15.00;82.60;;;;;;5075441;28;19978;-26
2023/07/04 05:02:33;;;;;;;;;;;15.10;82.60;;;;;;5075276;28;19909;-28
2023/07/04 05:04:59;;;;;;;;;;;15.20;82.60;;;;;;5075389;28;19920;-28
2023/07/04 05:07:25;;;;;;;;;;;15.20;82.40;;;;;;5075434;28;20265;-33
2023/07/04 05:09:54;;;;;;;;;;;15.20;82.40;;;;;;5075490;28;19909;-28
2023/07/04 05:12:20;;;;;;;;;;;15.30;82.50;;;;;;5075295;28;20002;-28
2023/07/04 05:14:45;;;;;;;;;;;15.30;82.40;;;;;;5057269;28;19959;-28
2023/07/04 05:17:11;;;;;;;;;;;15.30;82.50;;;;;;5075086;28;19926;-27
2023/07/04 05:19:37;;;;;;;;;;;15.30;82.40;;;;;;5075075;28;20385;-27
2023/07/04 05:22:02;;;;;;;;;;;15.30;82.40;;;;;;5075095;28;19969;-28
2023/07/04 05:24:29;;;;;;;;;;;15.30;82.30;;;;;;5075124;28;19999;-25
2023/07/04 05:26:55;;;;;;;;;;;15.40;82.40;;;;;;5075008;28;19957;-28
2023/07/04 05:29:20;;;;;;;;;;;15.40;83.00;;;;;;5075051;28;20011;-27
2023/07/04 05:31:45;;;;;;;;;;;15.40;82.40;;;;;;5074973;28;20360;-26
2023/07/04 05:34:11;;;;;;;;;;;15.40;82.30;;;;;;5074953;28;19971;-27
2023/07/04 05:36:37;;;;;;;;;;;15.50;82.20;;;;;;5075015;28;19909;-26
2023/07/04 05:39:06;;;;;;;;;;;15.60;82.30;;;;;;5074018;28;20521;-31
2023/07/04 05:41:32;;;;;;;;;;;15.60;82.20;;;;;;5074876;28;19908;-28
2023/07/04 05:43:58;;;;;;;;;;;15.60;82.30;;;;;;5074624;28;20364;-28
2023/07/04 05:46:24;;;;;;;;;;;15.60;82.20;;;;;;5074711;28;20361;-29
2023/07/04 05:48:50;;;;;;;;;;;15.70;82.40;;;;;;5074603;28;20008;-34
2023/07/04 05:51:17;;;;;;;;;;;15.60;82.40;;;;;;5074617;28;20022;-28
2023/07/04 05:53:45;;;;;;;;;;;15.70;82.40;;;;;;5074460;28;19914;-30
2023/07/04 05:56:11;;;;;;;;;;;15.70;82.40;;;;;;5074565;28;19916;-25
2023/07/04 05:58:37;;;;;;;;;;;15.70;82.50;;;;;;5074430;28;20302;-26
2023/07/04 06:01:06;;;;;;;;;;;15.60;82.50;;;;;;5074330;28;20329;-26
2023/07/04 06:03:31;;;;;;;;;;;15.60;82.60;;;;;;5056194;28;20376;-28
2023/07/04 06:05:56;;;;;;;;;;;15.50;82.60;;;;;;5073605;28;19909;-26
2023/07/04 06:08:22;;;;;;;;;;;15.60;82.80;;;;;;5074303;28;20280;-25
2023/07/04 06:10:57;;;;;;;;;;;15.60;82.70;;;;;;5074086;28;19913;-25
2023/07/04 06:13:22;;;;;;;;;;;15.60;82.70;;;;;;5074869;28;20356;-35
2023/07/04 06:15:48;;;;;;;;;;;15.70;82.80;;;;;;5074132;28;19909;-26
2023/07/04 06:18:13;;;;;;;;;;;15.80;82.80;;;;;;5073994;28;19908;-26
2023/07/04 06:20:39;;;;;;;;;;;15.90;82.70;;;;;;5073920;28;19916;-33
2023/07/04 06:23:04;;;;;;;;;;;16.10;82.70;;;;;;5073988;28;19914;-26
2023/07/04 06:25:30;;;;;;;;;;;16.20;82.50;;;;;;5073962;28;20272;-26
2023/07/04 06:27:55;;;;;;;;;;;16.30;82.80;;;;;;5073824;28;19916;-24
2023/07/04 06:30:21;;;;;;;;;;;16.30;82.70;;;;;;5073898;28;20010;-26
2023/07/04 06:32:46;;;;;;;;;;;16.40;82.60;;;;;;5073838;28;19913;-31
2023/07/04 06:35:11;;;;;;;;;;;16.50;82.40;;;;;;5073666;28;19917;-27
2023/07/04 06:37:37;;;;;;;;;;;16.60;82.40;;;;;;5073687;28;19940;-28
2023/07/04 06:40:03;;;;;;;;;;;16.70;82.10;;;;;;5073696;28;19920;-28
2023/07/04 06:42:30;;;;;;;;;;;16.80;82.00;;;;;;5073896;28;19923;-28
2023/07/04 06:44:55;;;;;;;;;;;16.80;81.90;;;;;;5073620;28;19961;-28
2023/07/04 06:47:21;;;;;;;;;;;16.80;81.90;;;;;;5073587;28;19970;-26
2023/07/04 06:49:46;;;;;;;;;;;16.80;82.00;;;;;;5073529;28;20405;-26
2023/07/04 06:52:14;;;;;;;;;;;16.80;81.90;;;;;;5055522;28;19997;-31
2023/07/04 06:54:39;;;;;;;;;;;16.80;82.00;;;;;;5073439;28;19920;-26
2023/07/04 06:57:05;;;;;;;;;;;16.80;82.00;;;;;;5073387;28;19978;-28
2023/07/04 06:59:30;;;;;;;;;;;16.80;81.90;;;;;;5073207;28;20385;-37
2023/07/04 07:01:56;;;;;;;;;;;16.90;81.90;;;;;;5073210;28;20307;-29
2023/07/04 07:04:21;;;;;;;;;;;16.90;81.70;;;;;;5073340;28;19913;-26
2023/07/04 07:06:47;;;;;;;;;;;17.00;81.80;;;;;;5073082;28;19912;-27
2023/07/04 07:09:12;;;;;;;;;;;17.00;81.60;;;;;;5073105;28;19919;-25
2023/07/04 07:11:40;;;;;;;;;;;17.10;81.60;;;;;;5073071;28;20299;-34
2023/07/04 07:14:05;;;;;;;;;;;17.10;81.50;;;;;;5073017;28;19913;-29
2023/07/04 07:16:31;;;;;;;;;;;17.10;81.30;;;;;;5072960;28;20014;-24
2023/07/04 07:18:56;;;;;;;;;;;17.20;81.10;;;;;;5071676;28;19920;-28
2023/07/04 07:21:23;;;;;;;;;;;17.40;81.10;;;;;;5072849;28;19944;-25
2023/07/04 07:23:49;;;;;;;;;;;17.50;80.90;;;;;;5072603;28;20003;-26
2023/07/04 07:26:17;;;;;;;;;;;17.50;80.70;;;;;;5072535;28;19919;-26
2023/07/04 07:28:42;;;;;;;;;;;17.50;80.60;;;;;;5072566;28;19917;-26
2023/07/04 07:31:12;;;;;;;;;;;17.50;80.40;;;;;;5072902;28;19912;-30
2023/07/04 07:33:39;;;;;;;;;;;17.40;80.30;;;;;;5072615;28;19920;-35
2023/07/04 07:36:11;;;;;;;;;;;17.40;80.30;;;;;;5072611;28;19913;-26
2023/07/04 07:38:37;;;;;;;;;;;17.40;80.40;;;;;;5072569;28;19912;-29
2023/07/04 07:41:04;;;;;;;;;;;17.30;80.30;;;;;;5072471;28;19927;-28
2023/07/04 07:43:30;;;;;;;;;;;17.30;80.30;;;;;;5054356;28;19952;-29
2023/07/04 07:45:55;;;;;;;;;;;17.20;80.30;;;;;;5072690;28;19955;-27
2023/07/04 07:48:21;;;;;;;;;;;17.10;80.10;;;;;;5072362;28;19912;-27
2023/07/04 07:50:46;;;;;;;;;;;17.10;80.10;;;;;;5072490;28;20195;-26
2023/07/04 07:53:13;;;;;;;;;;;17.20;79.90;;;;;;5072461;28;19913;-26
2023/07/04 07:55:38;;;;;;;;;;;17.40;79.80;;;;;;5054378;28;19917;-26
2023/07/04 07:58:04;;;;;;;;;;;17.60;79.30;;;;;;5072412;28;19982;-26
2023/07/04 08:00:30;;;;;;;;;;;17.70;78.90;;;;;;5072121;28;19916;-29
2023/07/04 08:02:55;;;;;;;;;;;17.80;78.70;;;;;;5072227;28;20011;-30
2023/07/04 08:05:21;;;;;;;;;;;17.70;78.40;;;;;;5072037;28;19999;-30
2023/07/04 08:07:46;;;;;;;;;;;17.80;78.50;;;;;;5072054;28;19912;-28
2023/07/04 08:10:12;;;;;;;;;;;17.70;78.20;;;;;;5072086;28;20054;-27
2023/07/04 08:12:37;;;;;;;;;;;17.60;77.40;;;;;;5072016;28;19913;-37
2023/07/04 08:15:03;;;;;;;;;;;17.60;77.40;;;;;;5072008;28;19919;-26
2023/07/04 08:17:29;;;;;;;;;;;17.50;77.10;;;;;;5071999;28;20280;-30
2023/07/04 08:19:54;;;;;;;;;;;17.50;77.50;;;;;;5072054;28;19916;-27
2023/07/04 08:22:20;;;;;;;;;;;17.40;76.70;;;;;;5071977;28;20003;-30
2023/07/04 08:24:45;;;;;;;;;;;17.40;76.50;;;;;;5072115;28;20440;-27
2023/07/04 08:27:11;;;;;;;;;;;17.40;76.40;;;;;;5071805;28;19912;-26
2023/07/04 08:29:36;;;;;;;;;;;17.60;76.40;;;;;;5071418;28;19948;-27
2023/07/04 08:32:02;;;;;;;;;;;17.60;75.30;;;;;;5071763;28;19912;-26
2023/07/04 08:34:27;;;;;;;;;;;17.60;75.80;;;;;;5071894;28;19920;-27
2023/07/04 08:36:53;;;;;;;;;;;17.70;75.50;;;;;;5071803;28;19912;-33
2023/07/04 08:39:18;;;;;;;;;;;17.80;74.80;;;;;;5071697;28;20385;-29
2023/07/04 08:42:04;;;;;;;;;;;17.80;75.10;;;;;;5071792;28;19959;-26
2023/07/04 08:44:29;;;;;;;;;;;17.80;74.60;;;;;;5071208;28;19913;-25
2023/07/04 08:46:57;;;;;;;;;;;17.90;74.10;;;;;;5071782;28;20389;-26
2023/07/04 08:49:34;;;;;;;;;;;17.90;73.60;;;;;;5071685;28;19912;-27
2023/07/04 08:52:08;;;;;;;;;;;17.90;73.90;;;;;;5071659;28;19916;-30
2023/07/04 08:54:36;;;;;;;;;;;18.10;73.90;;;;;;5071690;28;20386;-32
2023/07/04 08:57:19;;;;;;;;;;;18.20;72.90;;;;;;5071534;28;19912;-28
2023/07/04 08:59:46;;;;;;;;;;;18.30;72.70;;;;;;5071760;28;20378;-26
2023/07/04 09:02:30;;;;;;;;;;;18.40;72.20;;;;;;5071478;28;20377;-28
2023/07/04 09:05:16;;;;;;;;;;;18.50;71.00;;;;;;5053498;28;19912;-27
2023/07/04 09:07:48;;;;;;;;;;;18.50;70.90;;;;;;5071640;28;20411;-26
2023/07/04 09:10:13;;;;;;;;;;;18.50;71.50;;;;;;5071563;28;19938;-27
2023/07/04 09:12:39;;;;;;;;;;;18.50;71.60;;;;;;5071784;28;19920;-27
2023/07/04 09:15:44;;;;;;;;;;;18.60;71.30;;;;;;5071684;28;20382;-34
2023/07/04 09:18:32;;;;;;;;;;;18.60;70.70;;;;;;5009416;28;19917;-27
2023/07/04 09:21:11;;;;;;;;;;;18.80;69.80;;;;;;5009242;28;19917;-26
2023/07/04 09:23:37;;;;;;;;;;;18.80;69.30;;;;;;5053485;28;19958;-27
2023/07/04 09:26:03;;;;;;;;;;;18.90;68.70;;;;;;5071225;28;19947;-28
2023/07/04 09:28:29;;;;;;;;;;;18.90;69.00;;;;;;5071275;28;19978;-27
2023/07/04 09:30:58;;;;;;;;;;;19.00;68.40;;;;;;5071161;28;19913;-27
2023/07/04 09:33:25;;;;;;;;;;;19.00;67.60;;;;;;5053047;28;19912;-29
2023/07/04 09:35:50;;;;;;;;;;;19.10;68.50;;;;;;5071223;28;19919;-27
2023/07/04 09:38:16;;;;;;;;;;;19.20;68.00;;;;;;5071321;28;19916;-29
2023/07/04 09:40:47;;;;;;;;;;;19.20;67.50;;;;;;5071095;28;19928;-28
2023/07/04 09:43:24;;;;;;;;;;;19.30;67.90;;;;;;5074565;28;19954;-32
2023/07/04 09:45:50;;;;;;;;;;;19.30;67.90;;;;;;5056713;28;19965;-27
2023/07/04 09:48:22;;;;;;;;;;;19.50;67.20;;;;;;5074764;28;19913;-27
2023/07/04 09:50:48;;;;;;;;;;;19.60;65.80;;;;;;5074731;28;19920;-26
2023/07/04 09:53:18;;;;;;;;;;;19.60;66.30;;;;;;5074661;28;20283;-28
2023/07/04 09:55:57;;;;;;;;;;;19.80;66.40;;;;;;5074541;28;19912;-32
2023/07/04 09:58:23;;;;;;;;;;;19.90;66.10;;;;;;5074662;28;20237;-26
2023/07/04 10:01:09;;;;;;;;;;;19.90;65.70;;;;;;5074753;28;20268;-28
2023/07/04 10:03:35;;;;;;;;;;;19.90;64.90;;;;;;5073667;28;19912;-27
2023/07/04 10:06:01;;;;;;;;;;;19.90;63.90;;;;;;5074290;28;19913;-28
2023/07/04 10:08:27;;;;;;;;;;;19.90;64.60;;;;;;5074370;28;19919;-27
2023/07/04 10:10:54;;;;;;;;;;;19.90;64.70;;;;;;5074389;28;19916;-27
2023/07/04 10:13:22;;;;;;;;;;;19.90;64.00;;;;;;5074258;28;19920;-29
2023/07/04 10:15:48;;;;;;;;;;;20.00;64.00;;;;;;5074048;28;19912;-26
2023/07/04 10:18:25;;;;;;;;;;;20.00;61.20;;;;;;5074170;28;20126;-30
2023/07/04 10:20:52;;;;;;;;;;;20.00;62.20;;;;;;5074061;28;19917;-35
2023/07/04 10:23:17;;;;;;;;;;;20.00;61.70;;;;;;5073985;28;20343;-29
2023/07/04 10:25:43;;;;;;;;;;;20.00;59.90;;;;;;5074010;28;19942;-27
2023/07/04 10:28:13;;;;;;;;;;;20.10;59.80;;;;;;5073884;28;19999;-29
2023/07/04 10:30:41;;;;;;;;;;;20.10;59.10;;;;;;5073958;28;19986;-25
2023/07/04 10:33:14;;;;;;;;;;;20.10;58.80;;;;;;5073714;28;20040;-28
2023/07/04 10:35:40;;;;;;;;;;;20.10;58.60;;;;;;5073905;28;19923;-26
2023/07/04 10:38:15;;;;;;;;;;;20.10;58.10;;;;;;5073937;28;19948;-26
2023/07/04 10:40:41;;;;;;;;;;;20.10;57.90;;;;;;5073749;28;19920;-28
2023/07/04 10:43:12;;;;;;;;;;;20.00;58.20;;;;;;5073772;28;19966;-28
2023/07/04 10:45:41;;;;;;;;;;;20.00;57.90;;;;;;5073507;28;20375;-29
2023/07/04 10:48:09;;;;;;;;;;;20.00;58.50;;;;;;5055631;28;19923;-28
2023/07/04 10:50:36;;;;;;;;;;;20.10;59.00;;;;;;5073539;28;19912;-27
2023/07/04 10:53:02;;;;;;;;;;;20.30;58.90;;;;;;5073220;28;19951;-25
2023/07/04 10:55:32;;;;;;;;;;;20.30;58.00;;;;;;5055421;28;20276;-29
2023/07/04 10:58:23;;;;;;;;;;;20.30;57.10;;;;;;5073290;28;20398;-26
2023/07/04 11:00:58;;;;;;;;;;;20.30;57.60;;;;;;5069793;28;20295;-28
2023/07/04 11:03:41;;;;;;;;;;;20.50;57.40;;;;;;5073102;28;20007;-30
2023/07/04 11:06:08;;;;;;;;;;;20.50;56.80;;;;;;5073083;28;19912;-26
2023/07/04 11:08:34;;;;;;;;;;;20.60;57.00;;;;;;5073201;28;19924;-28
2023/07/04 11:11:05;;;;;;;;;;;20.80;56.90;;;;;;5073103;28;19913;-27
2023/07/04 11:13:31;;;;;;;;;;;21.00;57.20;;;;;;5073129;28;19912;-27
2023/07/04 11:15:59;;;;;;;;;;;21.20;56.80;;;;;;5072886;28;19920;-30
2023/07/04 11:18:29;;;;;;;;;;;21.30;56.40;;;;;;5073065;28;19912;-27
2023/07/04 11:21:08;;;;;;;;;;;21.40;56.30;;;;;;5072711;28;19928;-26
2023/07/04 11:23:46;;;;;;;;;;;21.30;56.60;;;;;;5072936;28;19942;-31
2023/07/04 11:26:11;;;;;;;;;;;21.40;56.50;;;;;;5073004;28;20083;-26
2023/07/04 11:28:37;;;;;;;;;;;21.40;56.20;;;;;;5072631;28;19916;-30
2023/07/04 11:31:11;;;;;;;;;;;21.50;56.10;;;;;;5072757;28;19913;-30
2023/07/04 11:33:39;;;;;;;;;;;21.50;54.30;;;;;;5072583;28;20348;-30
2023/07/04 11:36:07;;;;;;;;;;;21.40;52.60;;;;;;5072521;28;20011;-28
2023/07/04 11:38:33;;;;;;;;;;;21.40;52.60;;;;;;5072580;28;19912;-29
2023/07/04 11:41:00;;;;;;;;;;;21.50;52.50;;;;;;5072418;28;19972;-27
2023/07/04 11:43:32;;;;;;;;;;;21.50;52.40;;;;;;5072416;28;20221;-27
2023/07/04 11:45:58;;;;;;;;;;;21.50;52.90;;;;;;5072336;28;19912;-31
2023/07/04 11:48:26;;;;;;;;;;;21.60;53.10;;;;;;5072322;28;19916;-27
2023/07/04 11:50:54;;;;;;;;;;;21.70;53.30;;;;;;5072340;28;19912;-31
2023/07/04 11:53:24;;;;;;;;;;;21.80;52.80;;;;;;5072222;28;19991;-25
2023/07/04 11:56:14;;;;;;;;;;;21.80;52.60;;;;;;5072180;28;19962;-26
2023/07/04 11:58:40;;;;;;;;;;;21.70;52.70;;;;;;5072180;28;19956;-29
2023/07/04 12:01:06;;;;;;;;;;;21.60;52.40;;;;;;5053943;28;19916;-33
2023/07/04 12:03:35;;;;;;;;;;;21.60;53.50;;;;;;5071718;28;20384;-26
2023/07/04 12:06:01;;;;;;;;;;;21.70;53.80;;;;;;5071642;28;19912;-30
2023/07/04 12:08:36;;;;;;;;;;;21.80;53.40;;;;;;5072127;28;19922;-29
2023/07/04 12:11:04;;;;;;;;;;;21.80;52.80;;;;;;5071949;28;19935;-26
2023/07/04 12:13:31;;;;;;;;;;;21.80;53.20;;;;;;5071912;28;19959;-30
2023/07/04 12:15:57;;;;;;;;;;;21.90;53.10;;;;;;5072057;28;20368;-27
2023/07/04 12:18:26;;;;;;;;;;;22.00;52.90;;;;;;5072250;28;19920;-27
2023/07/04 12:20:52;;;;;;;;;;;22.00;52.20;;;;;;5071777;28;19917;-26
2023/07/04 12:23:18;;;;;;;;;;;22.00;52.20;;;;;;5072002;28;19912;-28
2023/07/04 12:25:44;;;;;;;;;;;22.00;52.20;;;;;;5053800;28;19943;-26
2023/07/04 12:28:11;;;;;;;;;;;22.00;52.90;;;;;;5071531;28;19916;-28
2023/07/04 12:30:48;;;;;;;;;;;22.00;53.20;;;;;;5071824;28;19954;-27
2023/07/04 12:33:20;;;;;;;;;;;22.00;52.50;;;;;;5053930;28;19912;-29
2023/07/04 12:35:54;;;;;;;;;;;21.80;51.60;;;;;;5071937;28;19912;-27
2023/07/04 12:38:23;;;;;;;;;;;21.70;51.80;;;;;;5071733;28;20047;-34
2023/07/04 12:40:49;;;;;;;;;;;21.60;51.70;;;;;;5071783;28;19924;-29
2023/07/04 12:43:15;;;;;;;;;;;21.50;52.30;;;;;;5071814;28;19913;-25
2023/07/04 12:45:41;;;;;;;;;;;21.50;52.40;;;;;;5071667;28;19914;-26
2023/07/04 12:48:09;;;;;;;;;;;21.50;52.90;;;;;;5071857;28;19920;-25
2023/07/04 12:50:37;;;;;;;;;;;21.60;53.00;;;;;;5071880;28;19940;-26
2023/07/04 12:53:03;;;;;;;;;;;21.80;53.20;;;;;;5071711;28;19913;-26
2023/07/04 12:55:29;;;;;;;;;;;21.90;52.80;;;;;;5071743;28;19960;-26
2023/07/04 12:57:55;;;;;;;;;;;21.90;52.70;;;;;;5071521;28;19955;-26
2023/07/04 13:00:32;;;;;;;;;;;22.00;52.80;;;;;;5071506;28;19917;-27
2023/07/04 13:02:59;;;;;;;;;;;22.00;51.80;;;;;;5071540;28;19955;-35
2023/07/04 13:05:27;;;;;;;;;;;22.00;52.30;;;;;;5071527;28;19912;-25
2023/07/04 13:07:53;;;;;;;;;;;22.00;52.40;;;;;;5071509;28;19912;-26
2023/07/04 13:10:21;;;;;;;;;;;22.00;52.70;;;;;;5071516;28;20284;-29
2023/07/04 13:12:46;;;;;;;;;;;22.10;52.80;;;;;;5071422;28;19913;-27
2023/07/04 13:15:18;;;;;;;;;;;22.10;52.80;;;;;;5071832;28;19977;-27
2023/07/04 13:17:55;;;;;;;;;;;22.00;52.70;;;;;;5075227;28;19924;-26
2023/07/04 13:20:21;;;;;;;;;;;21.90;53.00;;;;;;5075110;28;19925;-27
2023/07/04 13:22:47;;;;;;;;;;;21.90;52.60;;;;;;5075230;28;20007;-28
2023/07/04 13:25:24;;;;;;;;;;;21.90;53.10;;;;;;5075052;28;19960;-26
2023/07/04 13:27:50;;;;;;;;;;;21.90;52.10;;;;;;5074906;28;19917;-29
2023/07/04 13:30:26;;;;;;;;;;;22.10;52.40;;;;;;5074981;28;19913;-28
2023/07/04 13:32:51;;;;;;;;;;;22.30;52.50;;;;;;5074835;28;19912;-30
2023/07/04 13:35:28;;;;;;;;;;;22.50;51.90;;;;;;5074919;28;20292;-28
2023/07/04 13:37:53;;;;;;;;;;;22.50;51.60;;;;;;5074891;28;19979;-28
2023/07/04 13:40:19;;;;;;;;;;;22.40;51.60;;;;;;5074884;28;19987;-28
2023/07/04 13:43:04;;;;;;;;;;;22.40;51.70;;;;;;5074772;28;20011;-32
2023/07/04 13:45:30;;;;;;;;;;;22.40;51.40;;;;;;5074621;28;20308;-29
2023/07/04 13:47:55;;;;;;;;;;;22.40;51.70;;;;;;5074555;28;19913;-34
2023/07/04 13:50:21;;;;;;;;;;;22.50;51.50;;;;;;5074666;28;19912;-28
2023/07/04 13:52:46;;;;;;;;;;;22.60;51.50;;;;;;5074637;28;19960;-29
2023/07/04 13:55:12;;;;;;;;;;;22.70;51.50;;;;;;5074528;28;19912;-28
2023/07/04 13:57:37;;;;;;;;;;;22.80;51.60;;;;;;5074473;28;19934;-30
2023/07/04 14:00:03;;;;;;;;;;;23.00;51.90;;;;;;5074594;28;19920;-28
2023/07/04 14:02:29;;;;;;;;;;;23.10;51.90;;;;;;5074248;28;19921;-32
2023/07/04 14:04:54;;;;;;;;;;;23.30;51.30;;;;;;5074426;28;19912;-27
2023/07/04 14:07:20;;;;;;;;;;;23.40;51.40;;;;;;5074281;28;19912;-26
2023/07/04 14:09:45;;;;;;;;;;;23.40;50.90;;;;;;5074359;28;19912;-27
2023/07/04 14:12:11;;;;;;;;;;;23.30;50.80;;;;;;5074509;28;19913;-30
2023/07/04 14:14:36;;;;;;;;;;;23.20;51.50;;;;;;5074133;28;19912;-27
2023/07/04 14:17:02;;;;;;;;;;;23.20;51.80;;;;;;5074169;28;19916;-29
2023/07/04 14:19:27;;;;;;;;;;;23.20;51.90;;;;;;5073942;28;19912;-34